sensor_id;sensor_type;location;lat;lon;timestamp;P1;durP1;ratioP1;P2;durP2;ratioP2
16314;SDS011;8266;52.150;4.768;2023-10-19T00:00:54;8.18;;;7.47;;
16314;SDS011;8266;52.150;4.768;2023-10-19T00:03:24;7.82;;;7.13;;
16314;SDS011;8266;52.150;4.768;2023-10-19T00:05:50;8.18;;;7.50;;
16314;SDS011;8266;52.150;4.768;2023-10-19T00:08:17;8.38;;;7.68;;
16314;SDS011;8266;52.150;4.768;2023-10-19T00:10:47;8.55;;;7.78;;
16314;SDS011;8266;52.150;4.768;2023-10-19T00:13:28;8.98;;;7.95;;
16314;SDS011;8266;52.150;4.768;2023-10-19T00:15:55;9.25;;;8.45;;
16314;SDS011;8266;52.150;4.768;2023-10-19T00:18:22;8.73;;;7.93;;
16314;SDS011;8266;52.150;4.768;2023-10-19T00:20:50;9.82;;;8.93;;
16314;SDS011;8266;52.150;4.768;2023-10-19T00:23:19;8.77;;;7.90;;
16314;SDS011;8266;52.150;4.768;2023-10-19T00:25:54;9.60;;;8.77;;
16314;SDS011;8266;52.150;4.768;2023-10-19T00:28:22;9.60;;;8.80;;
16314;SDS011;8266;52.150;4.768;2023-10-19T00:30:52;10.57;;;9.55;;
16314;SDS011;8266;52.150;4.768;2023-10-19T00:33:28;9.63;;;8.73;;
16314;SDS011;8266;52.150;4.768;2023-10-19T00:35:59;9.77;;;8.88;;
16314;SDS011;8266;52.150;4.768;2023-10-19T00:38:32;9.25;;;8.48;;
16314;SDS011;8266;52.150;4.768;2023-10-19T00:41:13;10.20;;;9.32;;
16314;SDS011;8266;52.150;4.768;2023-10-19T00:43:45;9.90;;;9.10;;
16314;SDS011;8266;52.150;4.768;2023-10-19T00:46:16;9.23;;;8.45;;
16314;SDS011;8266;52.150;4.768;2023-10-19T00:48:48;10.40;;;9.50;;
16314;SDS011;8266;52.150;4.768;2023-10-19T00:51:18;10.05;;;9.25;;
16314;SDS011;8266;52.150;4.768;2023-10-19T00:54:02;10.10;;;9.30;;
16314;SDS011;8266;52.150;4.768;2023-10-19T00:56:35;11.50;;;10.50;;
16314;SDS011;8266;52.150;4.768;2023-10-19T00:59:06;11.48;;;10.43;;
16314;SDS011;8266;52.150;4.768;2023-10-19T01:01:40;10.13;;;9.13;;
16314;SDS011;8266;52.150;4.768;2023-10-19T01:04:10;11.05;;;10.05;;
16314;SDS011;8266;52.150;4.768;2023-10-19T01:06:40;11.27;;;10.27;;
16314;SDS011;8266;52.150;4.768;2023-10-19T01:09:09;11.00;;;10.00;;
16314;SDS011;8266;52.150;4.768;2023-10-19T01:11:40;11.20;;;10.18;;
16314;SDS011;8266;52.150;4.768;2023-10-19T01:14:19;10.77;;;9.88;;
16314;SDS011;8266;52.150;4.768;2023-10-19T01:16:49;11.02;;;10.02;;
16314;SDS011;8266;52.150;4.768;2023-10-19T01:19:16;11.20;;;10.20;;
16314;SDS011;8266;52.150;4.768;2023-10-19T01:21:43;11.85;;;10.75;;
16314;SDS011;8266;52.150;4.768;2023-10-19T01:24:13;11.68;;;10.57;;
16314;SDS011;8266;52.150;4.768;2023-10-19T01:26:42;10.38;;;9.30;;
16314;SDS011;8266;52.150;4.768;2023-10-19T01:29:11;10.32;;;9.38;;
16314;SDS011;8266;52.150;4.768;2023-10-19T01:31:40;10.35;;;9.35;;
16314;SDS011;8266;52.150;4.768;2023-10-19T01:34:21;9.77;;;8.88;;
16314;SDS011;8266;52.150;4.768;2023-10-19T01:36:51;9.20;;;8.40;;
16314;SDS011;8266;52.150;4.768;2023-10-19T01:39:21;10.02;;;9.07;;
16314;SDS011;8266;52.150;4.768;2023-10-19T01:41:48;9.43;;;8.63;;
16314;SDS011;8266;52.150;4.768;2023-10-19T01:44:15;11.23;;;8.30;;
16314;SDS011;8266;52.150;4.768;2023-10-19T01:46:45;8.85;;;8.05;;
16314;SDS011;8266;52.150;4.768;2023-10-19T01:49:13;9.52;;;8.63;;
16314;SDS011;8266;52.150;4.768;2023-10-19T01:51:51;8.65;;;7.95;;
16314;SDS011;8266;52.150;4.768;2023-10-19T01:54:17;8.48;;;7.68;;
16314;SDS011;8266;52.150;4.768;2023-10-19T01:56:49;8.20;;;7.50;;
16314;SDS011;8266;52.150;4.768;2023-10-19T01:59:16;9.73;;;8.32;;
16314;SDS011;8266;52.150;4.768;2023-10-19T02:01:44;7.65;;;6.95;;
16314;SDS011;8266;52.150;4.768;2023-10-19T02:04:10;7.30;;;6.60;;
16314;SDS011;8266;52.150;4.768;2023-10-19T02:06:38;7.82;;;7.10;;
16314;SDS011;8266;52.150;4.768;2023-10-19T02:09:06;7.32;;;6.68;;
16314;SDS011;8266;52.150;4.768;2023-10-19T02:11:46;6.45;;;5.90;;
16314;SDS011;8266;52.150;4.768;2023-10-19T02:14:15;6.38;;;5.78;;
16314;SDS011;8266;52.150;4.768;2023-10-19T02:16:44;5.90;;;5.40;;
16314;SDS011;8266;52.150;4.768;2023-10-19T02:19:12;6.13;;;5.25;;
16314;SDS011;8266;52.150;4.768;2023-10-19T02:21:39;6.40;;;5.03;;
16314;SDS011;8266;52.150;4.768;2023-10-19T02:24:06;6.43;;;5.82;;
16314;SDS011;8266;52.150;4.768;2023-10-19T02:26:33;5.13;;;4.65;;
16314;SDS011;8266;52.150;4.768;2023-10-19T02:29:01;4.22;;;3.72;;
16314;SDS011;8266;52.150;4.768;2023-10-19T02:31:33;8.10;;;3.83;;
16314;SDS011;8266;52.150;4.768;2023-10-19T02:34:03;3.50;;;3.20;;
16314;SDS011;8266;52.150;4.768;2023-10-19T02:36:31;4.15;;;2.90;;
16314;SDS011;8266;52.150;4.768;2023-10-19T02:38:57;4.85;;;3.08;;
16314;SDS011;8266;52.150;4.768;2023-10-19T02:41:26;2.65;;;2.45;;
16314;SDS011;8266;52.150;4.768;2023-10-19T02:43:52;2.35;;;1.85;;
16314;SDS011;8266;52.150;4.768;2023-10-19T02:46:30;3.53;;;1.73;;
16314;SDS011;8266;52.150;4.768;2023-10-19T02:49:01;3.22;;;1.90;;
16314;SDS011;8266;52.150;4.768;2023-10-19T02:51:28;2.42;;;1.55;;
16314;SDS011;8266;52.150;4.768;2023-10-19T02:53:56;2.92;;;1.40;;
16314;SDS011;8266;52.150;4.768;2023-10-19T02:56:22;4.30;;;1.50;;
16314;SDS011;8266;52.150;4.768;2023-10-19T02:58:50;2.13;;;1.25;;
16314;SDS011;8266;52.150;4.768;2023-10-19T03:01:16;3.85;;;1.35;;
16314;SDS011;8266;52.150;4.768;2023-10-19T03:03:47;2.10;;;1.08;;
16314;SDS011;8266;52.150;4.768;2023-10-19T03:06:18;1.75;;;1.02;;
16314;SDS011;8266;52.150;4.768;2023-10-19T03:08:46;2.47;;;1.00;;
16314;SDS011;8266;52.150;4.768;2023-10-19T03:11:13;3.47;;;1.17;;
16314;SDS011;8266;52.150;4.768;2023-10-19T03:13:41;1.67;;;0.82;;
16314;SDS011;8266;52.150;4.768;2023-10-19T03:16:08;2.88;;;0.80;;
16314;SDS011;8266;52.150;4.768;2023-10-19T03:18:35;4.35;;;1.20;;
16314;SDS011;8266;52.150;4.768;2023-10-19T03:21:03;2.00;;;0.80;;
16314;SDS011;8266;52.150;4.768;2023-10-19T03:23:32;1.40;;;0.95;;
16314;SDS011;8266;52.150;4.768;2023-10-19T03:25:59;1.08;;;0.80;;
16314;SDS011;8266;52.150;4.768;2023-10-19T03:28:52;1.98;;;0.90;;
16314;SDS011;8266;52.150;4.768;2023-10-19T03:31:20;2.10;;;0.95;;
16314;SDS011;8266;52.150;4.768;2023-10-19T03:33:49;1.92;;;1.13;;
16314;SDS011;8266;52.150;4.768;2023-10-19T03:36:20;2.35;;;1.50;;
16314;SDS011;8266;52.150;4.768;2023-10-19T03:38:49;2.53;;;2.10;;
16314;SDS011;8266;52.150;4.768;2023-10-19T03:41:18;3.08;;;2.33;;
16314;SDS011;8266;52.150;4.768;2023-10-19T03:43:48;2.65;;;2.40;;
16314;SDS011;8266;52.150;4.768;2023-10-19T03:46:17;3.20;;;2.65;;
16314;SDS011;8266;52.150;4.768;2023-10-19T03:48:53;4.22;;;3.30;;
16314;SDS011;8266;52.150;4.768;2023-10-19T03:51:24;4.20;;;2.83;;
16314;SDS011;8266;52.150;4.768;2023-10-19T03:53:53;3.38;;;2.58;;
16314;SDS011;8266;52.150;4.768;2023-10-19T03:56:26;3.00;;;2.70;;
16314;SDS011;8266;52.150;4.768;2023-10-19T03:58:54;4.38;;;3.03;;
16314;SDS011;8266;52.150;4.768;2023-10-19T04:01:23;3.55;;;2.65;;
16314;SDS011;8266;52.150;4.768;2023-10-19T04:03:50;2.40;;;2.20;;
16314;SDS011;8266;52.150;4.768;2023-10-19T04:06:20;3.20;;;2.45;;
16314;SDS011;8266;52.150;4.768;2023-10-19T04:08:47;3.78;;;2.20;;
16314;SDS011;8266;52.150;4.768;2023-10-19T04:11:17;2.92;;;2.05;;
16314;SDS011;8266;52.150;4.768;2023-10-19T04:13:57;2.33;;;1.88;;
16314;SDS011;8266;52.150;4.768;2023-10-19T04:16:28;2.67;;;1.70;;
16314;SDS011;8266;52.150;4.768;2023-10-19T04:18:56;3.08;;;1.70;;
16314;SDS011;8266;52.150;4.768;2023-10-19T04:21:23;2.95;;;1.48;;
16314;SDS011;8266;52.150;4.768;2023-10-19T04:23:50;1.67;;;1.02;;
16314;SDS011;8266;52.150;4.768;2023-10-19T04:26:19;2.67;;;1.00;;
16314;SDS011;8266;52.150;4.768;2023-10-19T04:28:46;2.33;;;0.70;;
16314;SDS011;8266;52.150;4.768;2023-10-19T04:31:17;4.05;;;0.98;;
16314;SDS011;8266;52.150;4.768;2023-10-19T04:33:44;2.85;;;0.90;;
16314;SDS011;8266;52.150;4.768;2023-10-19T04:36:15;2.22;;;0.63;;
16314;SDS011;8266;52.150;4.768;2023-10-19T04:38:46;5.10;;;0.70;;
16314;SDS011;8266;52.150;4.768;2023-10-19T04:41:13;4.20;;;0.73;;
16314;SDS011;8266;52.150;4.768;2023-10-19T04:43:42;1.67;;;0.75;;
16314;SDS011;8266;52.150;4.768;2023-10-19T04:46:15;2.33;;;0.50;;
16314;SDS011;8266;52.150;4.768;2023-10-19T04:48:44;1.02;;;0.57;;
16314;SDS011;8266;52.150;4.768;2023-10-19T04:51:11;1.65;;;0.70;;
16314;SDS011;8266;52.150;4.768;2023-10-19T04:53:38;4.53;;;0.95;;
16314;SDS011;8266;52.150;4.768;2023-10-19T04:56:05;4.82;;;0.70;;
16314;SDS011;8266;52.150;4.768;2023-10-19T04:58:35;2.92;;;0.75;;
16314;SDS011;8266;52.150;4.768;2023-10-19T05:01:04;3.15;;;0.73;;
16314;SDS011;8266;52.150;4.768;2023-10-19T05:03:31;2.42;;;1.05;;
16314;SDS011;8266;52.150;4.768;2023-10-19T05:05:59;1.23;;;0.65;;
16314;SDS011;8266;52.150;4.768;2023-10-19T05:08:29;3.53;;;0.70;;
16314;SDS011;8266;52.150;4.768;2023-10-19T05:10:58;1.52;;;0.60;;
16314;SDS011;8266;52.150;4.768;2023-10-19T05:13:25;2.85;;;0.80;;
16314;SDS011;8266;52.150;4.768;2023-10-19T05:15:53;4.38;;;0.77;;
16314;SDS011;8266;52.150;4.768;2023-10-19T05:18:22;2.75;;;0.82;;
16314;SDS011;8266;52.150;4.768;2023-10-19T05:20:49;2.53;;;0.60;;
16314;SDS011;8266;52.150;4.768;2023-10-19T05:23:20;2.15;;;0.68;;
16314;SDS011;8266;52.150;4.768;2023-10-19T05:25:49;3.83;;;1.00;;
16314;SDS011;8266;52.150;4.768;2023-10-19T05:28:17;1.52;;;0.50;;
16314;SDS011;8266;52.150;4.768;2023-10-19T05:30:46;2.78;;;0.82;;
16314;SDS011;8266;52.150;4.768;2023-10-19T05:33:15;2.30;;;0.80;;
16314;SDS011;8266;52.150;4.768;2023-10-19T05:35:46;1.95;;;0.63;;
16314;SDS011;8266;52.150;4.768;2023-10-19T05:38:14;1.83;;;0.90;;
16314;SDS011;8266;52.150;4.768;2023-10-19T05:40:41;2.90;;;0.90;;
16314;SDS011;8266;52.150;4.768;2023-10-19T05:43:09;3.75;;;1.15;;
16314;SDS011;8266;52.150;4.768;2023-10-19T05:45:36;1.55;;;0.70;;
16314;SDS011;8266;52.150;4.768;2023-10-19T05:48:03;1.95;;;0.60;;
16314;SDS011;8266;52.150;4.768;2023-10-19T05:50:31;3.30;;;0.70;;
16314;SDS011;8266;52.150;4.768;2023-10-19T05:53:00;2.30;;;0.80;;
16314;SDS011;8266;52.150;4.768;2023-10-19T05:55:28;1.90;;;0.70;;
16314;SDS011;8266;52.150;4.768;2023-10-19T05:57:55;1.88;;;0.80;;
16314;SDS011;8266;52.150;4.768;2023-10-19T06:00:22;4.88;;;1.30;;
16314;SDS011;8266;52.150;4.768;2023-10-19T06:02:51;3.42;;;1.00;;
16314;SDS011;8266;52.150;4.768;2023-10-19T06:05:18;2.75;;;0.82;;
16314;SDS011;8266;52.150;4.768;2023-10-19T06:07:46;2.30;;;1.00;;
16314;SDS011;8266;52.150;4.768;2023-10-19T06:10:16;2.38;;;0.80;;
16314;SDS011;8266;52.150;4.768;2023-10-19T06:12:45;3.60;;;0.88;;
16314;SDS011;8266;52.150;4.768;2023-10-19T06:15:14;3.60;;;0.98;;
16314;SDS011;8266;52.150;4.768;2023-10-19T06:17:42;2.55;;;1.23;;
16314;SDS011;8266;52.150;4.768;2023-10-19T06:20:11;3.03;;;0.70;;
16314;SDS011;8266;52.150;4.768;2023-10-19T06:22:49;1.92;;;0.95;;
16314;SDS011;8266;52.150;4.768;2023-10-19T06:25:18;3.35;;;1.20;;
16314;SDS011;8266;52.150;4.768;2023-10-19T06:27:46;2.53;;;1.17;;
16314;SDS011;8266;52.150;4.768;2023-10-19T06:30:13;1.52;;;0.60;;
16314;SDS011;8266;52.150;4.768;2023-10-19T06:32:47;4.70;;;1.05;;
16314;SDS011;8266;52.150;4.768;2023-10-19T06:35:16;2.15;;;0.88;;
16314;SDS011;8266;52.150;4.768;2023-10-19T06:37:43;4.05;;;1.00;;
16314;SDS011;8266;52.150;4.768;2023-10-19T06:40:11;4.07;;;1.33;;
16314;SDS011;8266;52.150;4.768;2023-10-19T06:42:41;3.92;;;1.20;;
16314;SDS011;8266;52.150;4.768;2023-10-19T06:45:08;2.55;;;1.00;;
16314;SDS011;8266;52.150;4.768;2023-10-19T06:47:39;4.07;;;1.02;;
16314;SDS011;8266;52.150;4.768;2023-10-19T06:50:06;2.90;;;1.20;;
16314;SDS011;8266;52.150;4.768;2023-10-19T06:52:35;3.25;;;1.08;;
16314;SDS011;8266;52.150;4.768;2023-10-19T06:55:03;3.03;;;0.95;;
16314;SDS011;8266;52.150;4.768;2023-10-19T06:57:30;2.13;;;1.10;;
16314;SDS011;8266;52.150;4.768;2023-10-19T06:59:59;2.67;;;1.55;;
16314;SDS011;8266;52.150;4.768;2023-10-19T07:02:35;3.22;;;1.10;;
16314;SDS011;8266;52.150;4.768;2023-10-19T07:05:03;1.73;;;1.02;;
16314;SDS011;8266;52.150;4.768;2023-10-19T07:07:30;3.42;;;1.35;;
16314;SDS011;8266;52.150;4.768;2023-10-19T07:09:57;1.95;;;1.08;;
16314;SDS011;8266;52.150;4.768;2023-10-19T07:12:24;3.92;;;1.30;;
16314;SDS011;8266;52.150;4.768;2023-10-19T07:14:51;2.22;;;0.88;;
16314;SDS011;8266;52.150;4.768;2023-10-19T07:17:20;3.90;;;1.23;;
16314;SDS011;8266;52.150;4.768;2023-10-19T07:19:47;2.45;;;1.10;;
16314;SDS011;8266;52.150;4.768;2023-10-19T07:22:15;3.85;;;1.33;;
16314;SDS011;8266;52.150;4.768;2023-10-19T07:24:42;3.92;;;1.00;;
16314;SDS011;8266;52.150;4.768;2023-10-19T07:27:09;3.33;;;1.10;;
16314;SDS011;8266;52.150;4.768;2023-10-19T07:29:43;2.92;;;1.10;;
16314;SDS011;8266;52.150;4.768;2023-10-19T07:32:10;4.65;;;1.30;;
16314;SDS011;8266;52.150;4.768;2023-10-19T07:34:40;2.95;;;1.30;;
16314;SDS011;8266;52.150;4.768;2023-10-19T07:37:07;2.70;;;1.23;;
16314;SDS011;8266;52.150;4.768;2023-10-19T07:39:40;3.70;;;1.27;;
16314;SDS011;8266;52.150;4.768;2023-10-19T07:42:10;3.03;;;1.00;;
16314;SDS011;8266;52.150;4.768;2023-10-19T07:44:37;3.22;;;1.15;;
16314;SDS011;8266;52.150;4.768;2023-10-19T07:47:04;3.45;;;1.10;;
16314;SDS011;8266;52.150;4.768;2023-10-19T07:49:34;2.35;;;1.00;;
16314;SDS011;8266;52.150;4.768;2023-10-19T07:52:05;2.28;;;1.00;;
16314;SDS011;8266;52.150;4.768;2023-10-19T07:54:33;2.83;;;1.35;;
16314;SDS011;8266;52.150;4.768;2023-10-19T07:57:00;3.33;;;1.10;;
16314;SDS011;8266;52.150;4.768;2023-10-19T07:59:31;3.75;;;1.13;;
16314;SDS011;8266;52.150;4.768;2023-10-19T08:01:58;1.98;;;1.00;;
16314;SDS011;8266;52.150;4.768;2023-10-19T08:04:27;5.30;;;1.73;;
16314;SDS011;8266;52.150;4.768;2023-10-19T08:06:54;3.28;;;1.00;;
16314;SDS011;8266;52.150;4.768;2023-10-19T08:09:23;3.42;;;0.82;;
16314;SDS011;8266;52.150;4.768;2023-10-19T08:11:56;3.38;;;1.20;;
16314;SDS011;8266;52.150;4.768;2023-10-19T08:14:24;7.40;;;1.30;;
16314;SDS011;8266;52.150;4.768;2023-10-19T08:16:51;3.38;;;1.25;;
16314;SDS011;8266;52.150;4.768;2023-10-19T08:19:18;3.92;;;1.13;;
16314;SDS011;8266;52.150;4.768;2023-10-19T08:21:46;2.53;;;1.40;;
16314;SDS011;8266;52.150;4.768;2023-10-19T08:24:13;2.20;;;1.17;;
16314;SDS011;8266;52.150;4.768;2023-10-19T08:26:44;2.78;;;1.20;;
16314;SDS011;8266;52.150;4.768;2023-10-19T08:29:11;5.13;;;1.20;;
16314;SDS011;8266;52.150;4.768;2023-10-19T08:31:39;4.25;;;1.13;;
16314;SDS011;8266;52.150;4.768;2023-10-19T08:34:06;5.10;;;1.33;;
16314;SDS011;8266;52.150;4.768;2023-10-19T08:36:34;3.90;;;1.30;;
16314;SDS011;8266;52.150;4.768;2023-10-19T08:39:02;3.75;;;1.23;;
16314;SDS011;8266;52.150;4.768;2023-10-19T08:41:31;4.13;;;1.48;;
16314;SDS011;8266;52.150;4.768;2023-10-19T08:44:01;3.70;;;1.55;;
16314;SDS011;8266;52.150;4.768;2023-10-19T08:46:28;3.58;;;1.00;;
16314;SDS011;8266;52.150;4.768;2023-10-19T08:48:56;2.78;;;1.30;;
16314;SDS011;8266;52.150;4.768;2023-10-19T08:51:24;4.93;;;1.63;;
16314;SDS011;8266;52.150;4.768;2023-10-19T08:53:52;4.20;;;1.10;;
16314;SDS011;8266;52.150;4.768;2023-10-19T08:56:22;4.65;;;1.45;;
16314;SDS011;8266;52.150;4.768;2023-10-19T08:58:50;4.70;;;1.30;;
16314;SDS011;8266;52.150;4.768;2023-10-19T09:01:19;3.58;;;1.20;;
16314;SDS011;8266;52.150;4.768;2023-10-19T09:03:49;3.42;;;1.40;;
16314;SDS011;8266;52.150;4.768;2023-10-19T09:06:16;3.28;;;1.23;;
16314;SDS011;8266;52.150;4.768;2023-10-19T09:08:46;2.67;;;1.35;;
16314;SDS011;8266;52.150;4.768;2023-10-19T09:11:14;5.60;;;1.30;;
16314;SDS011;8266;52.150;4.768;2023-10-19T09:13:45;5.07;;;1.60;;
16314;SDS011;8266;52.150;4.768;2023-10-19T09:16:13;5.90;;;1.75;;
16314;SDS011;8266;52.150;4.768;2023-10-19T09:18:43;3.92;;;1.40;;
16314;SDS011;8266;52.150;4.768;2023-10-19T09:21:11;5.38;;;1.60;;
16314;SDS011;8266;52.150;4.768;2023-10-19T09:23:49;6.75;;;1.98;;
16314;SDS011;8266;52.150;4.768;2023-10-19T09:26:17;3.55;;;1.50;;
16314;SDS011;8266;52.150;4.768;2023-10-19T09:28:47;4.70;;;1.30;;
16314;SDS011;8266;52.150;4.768;2023-10-19T09:31:15;3.97;;;1.63;;
16314;SDS011;8266;52.150;4.768;2023-10-19T09:33:45;4.70;;;1.70;;
16314;SDS011;8266;52.150;4.768;2023-10-19T09:36:14;8.63;;;1.95;;
16314;SDS011;8266;52.150;4.768;2023-10-19T09:38:46;5.25;;;1.63;;
16314;SDS011;8266;52.150;4.768;2023-10-19T09:41:16;4.75;;;1.58;;
16314;SDS011;8266;52.150;4.768;2023-10-19T09:43:45;4.57;;;1.95;;
16314;SDS011;8266;52.150;4.768;2023-10-19T09:46:20;4.22;;;1.58;;
16314;SDS011;8266;52.150;4.768;2023-10-19T09:48:50;8.40;;;2.05;;
16314;SDS011;8266;52.150;4.768;2023-10-19T09:51:17;4.72;;;1.85;;
16314;SDS011;8266;52.150;4.768;2023-10-19T09:53:47;5.05;;;2.00;;
16314;SDS011;8266;52.150;4.768;2023-10-19T09:56:17;7.03;;;2.15;;
16314;SDS011;8266;52.150;4.768;2023-10-19T09:58:53;5.45;;;1.50;;
16314;SDS011;8266;52.150;4.768;2023-10-19T10:01:24;8.65;;;2.08;;
16314;SDS011;8266;52.150;4.768;2023-10-19T10:03:52;4.70;;;1.70;;
16314;SDS011;8266;52.150;4.768;2023-10-19T10:06:29;3.63;;;1.70;;
16314;SDS011;8266;52.150;4.768;2023-10-19T10:08:58;6.10;;;1.95;;
16314;SDS011;8266;52.150;4.768;2023-10-19T10:11:28;4.68;;;1.58;;
16314;SDS011;8266;52.150;4.768;2023-10-19T10:13:56;4.75;;;1.77;;
16314;SDS011;8266;52.150;4.768;2023-10-19T10:16:24;4.15;;;2.25;;
16314;SDS011;8266;52.150;4.768;2023-10-19T10:18:55;4.72;;;1.50;;
16314;SDS011;8266;52.150;4.768;2023-10-19T10:21:25;5.47;;;1.50;;
16314;SDS011;8266;52.150;4.768;2023-10-19T10:23:53;6.07;;;1.80;;
16314;SDS011;8266;52.150;4.768;2023-10-19T10:26:21;8.50;;;2.03;;
16314;SDS011;8266;52.150;4.768;2023-10-19T10:29:07;5.45;;;1.48;;
16314;SDS011;8266;52.150;4.768;2023-10-19T10:31:46;7.53;;;1.50;;
16314;SDS011;8266;52.150;4.768;2023-10-19T10:37:10;5.55;;;1.42;;
16314;SDS011;8266;52.150;4.768;2023-10-19T10:39:39;7.18;;;1.83;;
16314;SDS011;8266;52.150;4.768;2023-10-19T10:42:09;5.13;;;1.50;;
16314;SDS011;8266;52.150;4.768;2023-10-19T10:44:37;8.35;;;1.92;;
16314;SDS011;8266;52.150;4.768;2023-10-19T10:47:06;6.60;;;2.25;;
16314;SDS011;8266;52.150;4.768;2023-10-19T10:49:35;5.88;;;1.60;;
16314;SDS011;8266;52.150;4.768;2023-10-19T10:52:22;7.22;;;1.67;;
16314;SDS011;8266;52.150;4.768;2023-10-19T10:54:50;6.07;;;1.50;;
16314;SDS011;8266;52.150;4.768;2023-10-19T10:57:18;4.43;;;1.45;;
16314;SDS011;8266;52.150;4.768;2023-10-19T10:59:45;5.13;;;1.42;;
16314;SDS011;8266;52.150;4.768;2023-10-19T11:02:18;5.65;;;1.80;;
16314;SDS011;8266;52.150;4.768;2023-10-19T11:04:48;5.15;;;1.48;;
16314;SDS011;8266;52.150;4.768;2023-10-19T11:07:18;4.30;;;1.50;;
16314;SDS011;8266;52.150;4.768;2023-10-19T11:09:46;4.97;;;1.67;;
16314;SDS011;8266;52.150;4.768;2023-10-19T11:12:14;4.43;;;2.05;;
16314;SDS011;8266;52.150;4.768;2023-10-19T11:14:51;6.03;;;1.58;;
16314;SDS011;8266;52.150;4.768;2023-10-19T11:17:18;5.88;;;1.27;;
16314;SDS011;8266;52.150;4.768;2023-10-19T11:19:50;7.18;;;1.90;;
16314;SDS011;8266;52.150;4.768;2023-10-19T11:22:17;6.40;;;1.45;;
16314;SDS011;8266;52.150;4.768;2023-10-19T11:24:43;4.30;;;1.50;;
16314;SDS011;8266;52.150;4.768;2023-10-19T11:27:10;9.52;;;2.13;;
16314;SDS011;8266;52.150;4.768;2023-10-19T11:29:37;5.72;;;1.40;;
16314;SDS011;8266;52.150;4.768;2023-10-19T11:32:05;5.45;;;1.52;;
16314;SDS011;8266;52.150;4.768;2023-10-19T11:34:32;4.45;;;1.48;;
16314;SDS011;8266;52.150;4.768;2023-10-19T11:37:01;8.23;;;1.85;;
16314;SDS011;8266;52.150;4.768;2023-10-19T11:39:30;4.72;;;1.25;;
16314;SDS011;8266;52.150;4.768;2023-10-19T11:41:57;8.27;;;2.53;;
16314;SDS011;8266;52.150;4.768;2023-10-19T11:44:24;8.00;;;1.38;;
16314;SDS011;8266;52.150;4.768;2023-10-19T11:46:51;5.07;;;1.67;;
16314;SDS011;8266;52.150;4.768;2023-10-19T11:49:18;4.82;;;1.42;;
16314;SDS011;8266;52.150;4.768;2023-10-19T11:51:45;7.97;;;1.80;;
16314;SDS011;8266;52.150;4.768;2023-10-19T11:54:14;5.03;;;1.70;;
16314;SDS011;8266;52.150;4.768;2023-10-19T11:56:43;8.57;;;2.05;;
16314;SDS011;8266;52.150;4.768;2023-10-19T11:59:10;6.50;;;1.98;;
16314;SDS011;8266;52.150;4.768;2023-10-19T12:01:37;7.78;;;2.08;;
16314;SDS011;8266;52.150;4.768;2023-10-19T12:04:04;7.20;;;1.83;;
16314;SDS011;8266;52.150;4.768;2023-10-19T12:06:32;5.78;;;1.92;;
16314;SDS011;8266;52.150;4.768;2023-10-19T12:08:59;6.25;;;1.77;;
16314;SDS011;8266;52.150;4.768;2023-10-19T12:11:40;5.82;;;1.58;;
16314;SDS011;8266;52.150;4.768;2023-10-19T12:14:09;4.80;;;1.58;;
16314;SDS011;8266;52.150;4.768;2023-10-19T12:16:40;4.50;;;1.40;;
16314;SDS011;8266;52.150;4.768;2023-10-19T12:19:07;7.68;;;1.90;;
16314;SDS011;8266;52.150;4.768;2023-10-19T12:21:34;8.75;;;1.75;;
16314;SDS011;8266;52.150;4.768;2023-10-19T12:24:03;7.05;;;1.42;;
16314;SDS011;8266;52.150;4.768;2023-10-19T12:26:30;5.32;;;1.73;;
16314;SDS011;8266;52.150;4.768;2023-10-19T12:28:59;4.18;;;1.13;;
16314;SDS011;8266;52.150;4.768;2023-10-19T12:31:26;6.20;;;1.65;;
16314;SDS011;8266;52.150;4.768;2023-10-19T12:33:55;6.63;;;2.03;;
16314;SDS011;8266;52.150;4.768;2023-10-19T12:36:22;5.93;;;1.58;;
16314;SDS011;8266;52.150;4.768;2023-10-19T12:38:56;6.18;;;1.58;;
16314;SDS011;8266;52.150;4.768;2023-10-19T12:41:23;6.50;;;1.77;;
16314;SDS011;8266;52.150;4.768;2023-10-19T12:43:51;5.95;;;2.22;;
16314;SDS011;8266;52.150;4.768;2023-10-19T12:46:23;4.28;;;1.30;;
16314;SDS011;8266;52.150;4.768;2023-10-19T12:48:52;8.70;;;2.10;;
16314;SDS011;8266;52.150;4.768;2023-10-19T12:51:20;4.95;;;1.40;;
16314;SDS011;8266;52.150;4.768;2023-10-19T12:53:49;5.80;;;1.95;;
16314;SDS011;8266;52.150;4.768;2023-10-19T12:56:17;10.38;;;2.92;;
16314;SDS011;8266;52.150;4.768;2023-10-19T12:58:44;6.50;;;2.00;;
16314;SDS011;8266;52.150;4.768;2023-10-19T13:01:13;5.40;;;1.80;;
16314;SDS011;8266;52.150;4.768;2023-10-19T13:03:45;6.32;;;1.80;;
16314;SDS011;8266;52.150;4.768;2023-10-19T13:06:14;4.93;;;1.73;;
16314;SDS011;8266;52.150;4.768;2023-10-19T13:08:44;3.72;;;1.48;;
16314;SDS011;8266;52.150;4.768;2023-10-19T13:11:12;5.25;;;1.40;;
16314;SDS011;8266;52.150;4.768;2023-10-19T13:13:39;7.93;;;1.70;;
16314;SDS011;8266;52.150;4.768;2023-10-19T13:16:06;6.22;;;1.80;;
16314;SDS011;8266;52.150;4.768;2023-10-19T13:18:34;5.30;;;1.60;;
16314;SDS011;8266;52.150;4.768;2023-10-19T13:21:02;4.55;;;1.88;;
16314;SDS011;8266;52.150;4.768;2023-10-19T13:23:30;6.03;;;1.58;;
16314;SDS011;8266;52.150;4.768;2023-10-19T13:25:59;5.07;;;1.77;;
16314;SDS011;8266;52.150;4.768;2023-10-19T13:28:42;5.90;;;1.50;;
16314;SDS011;8266;52.150;4.768;2023-10-19T13:31:09;6.97;;;1.63;;
16314;SDS011;8266;52.150;4.768;2023-10-19T13:33:38;5.75;;;1.75;;
16314;SDS011;8266;52.150;4.768;2023-10-19T13:36:08;8.13;;;1.95;;
16314;SDS011;8266;52.150;4.768;2023-10-19T13:38:35;6.90;;;1.98;;
16314;SDS011;8266;52.150;4.768;2023-10-19T13:41:03;6.85;;;1.70;;
16314;SDS011;8266;52.150;4.768;2023-10-19T13:43:32;6.45;;;1.75;;
16314;SDS011;8266;52.150;4.768;2023-10-19T13:46:00;8.13;;;1.95;;
16314;SDS011;8266;52.150;4.768;2023-10-19T13:48:29;7.55;;;2.20;;
16314;SDS011;8266;52.150;4.768;2023-10-19T13:50:56;7.95;;;1.63;;
16314;SDS011;8266;52.150;4.768;2023-10-19T13:53:32;6.43;;;1.85;;
16314;SDS011;8266;52.150;4.768;2023-10-19T13:55:59;5.93;;;1.70;;
16314;SDS011;8266;52.150;4.768;2023-10-19T13:58:26;5.13;;;2.00;;
16314;SDS011;8266;52.150;4.768;2023-10-19T14:00:53;7.78;;;2.10;;
16314;SDS011;8266;52.150;4.768;2023-10-19T14:03:20;5.60;;;2.03;;
16314;SDS011;8266;52.150;4.768;2023-10-19T14:05:47;6.50;;;1.88;;
16314;SDS011;8266;52.150;4.768;2023-10-19T14:08:15;4.72;;;2.10;;
16314;SDS011;8266;52.150;4.768;2023-10-19T14:10:44;5.20;;;1.80;;
16314;SDS011;8266;52.150;4.768;2023-10-19T14:13:12;8.25;;;1.88;;
16314;SDS011;8266;52.150;4.768;2023-10-19T14:15:39;6.05;;;1.80;;
16314;SDS011;8266;52.150;4.768;2023-10-19T14:18:07;6.95;;;2.20;;
16314;SDS011;8266;52.150;4.768;2023-10-19T14:20:35;6.00;;;1.50;;
16314;SDS011;8266;52.150;4.768;2023-10-19T14:23:04;4.95;;;1.63;;
16314;SDS011;8266;52.150;4.768;2023-10-19T14:25:31;5.60;;;1.70;;
16314;SDS011;8266;52.150;4.768;2023-10-19T14:28:03;7.65;;;2.55;;
16314;SDS011;8266;52.150;4.768;2023-10-19T14:30:31;7.00;;;1.77;;
16314;SDS011;8266;52.150;4.768;2023-10-19T14:32:59;9.63;;;6.03;;
16314;SDS011;8266;52.150;4.768;2023-10-19T14:35:26;6.88;;;3.47;;
16314;SDS011;8266;52.150;4.768;2023-10-19T14:37:53;9.70;;;4.03;;
16314;SDS011;8266;52.150;4.768;2023-10-19T14:40:24;10.43;;;6.40;;
16314;SDS011;8266;52.150;4.768;2023-10-19T14:42:53;6.13;;;3.13;;
16314;SDS011;8266;52.150;4.768;2023-10-19T14:45:24;4.80;;;2.25;;
16314;SDS011;8266;52.150;4.768;2023-10-19T14:47:54;5.68;;;2.33;;
16314;SDS011;8266;52.150;4.768;2023-10-19T14:50:21;5.28;;;1.95;;
16314;SDS011;8266;52.150;4.768;2023-10-19T14:52:49;6.65;;;1.92;;
16314;SDS011;8266;52.150;4.768;2023-10-19T14:55:17;6.93;;;1.60;;
16314;SDS011;8266;52.150;4.768;2023-10-19T14:57:45;7.40;;;1.85;;
16314;SDS011;8266;52.150;4.768;2023-10-19T15:00:16;7.25;;;1.80;;
16314;SDS011;8266;52.150;4.768;2023-10-19T15:02:49;5.55;;;1.33;;
16314;SDS011;8266;52.150;4.768;2023-10-19T15:05:19;7.07;;;1.73;;
16314;SDS011;8266;52.150;4.768;2023-10-19T15:07:48;7.00;;;2.00;;
16314;SDS011;8266;52.150;4.768;2023-10-19T15:10:18;5.72;;;1.92;;
16314;SDS011;8266;52.150;4.768;2023-10-19T15:12:46;6.10;;;2.05;;
16314;SDS011;8266;52.150;4.768;2023-10-19T15:15:13;6.30;;;1.70;;